createdAt,value
2023-02-13T00:01:08.087Z,99.90
2023-02-13T00:03:36.170Z,99.90
2023-02-13T00:06:06.427Z,99.90
2023-02-13T00:08:34.502Z,99.90
2023-02-13T00:11:02.477Z,99.90
2023-02-13T00:13:30.673Z,99.90
2023-02-13T00:16:00.237Z,99.90
2023-02-13T00:18:29.365Z,99.90
2023-02-13T00:21:02.538Z,99.90
2023-02-13T00:23:32.259Z,99.90
2023-02-13T00:26:01.297Z,99.90
2023-02-13T00:28:29.551Z,99.90
2023-02-13T00:31:07.325Z,99.90
2023-02-13T00:33:36.197Z,99.90
2023-02-13T00:36:21.429Z,99.90
2023-02-13T00:38:49.595Z,99.90
2023-02-13T00:41:18.199Z,99.90
2023-02-13T00:43:47.488Z,99.90
2023-02-13T00:46:16.547Z,99.90
2023-02-13T00:48:47.819Z,99.90
2023-02-13T00:51:15.726Z,99.90
2023-02-13T00:53:43.755Z,99.90
2023-02-13T00:56:11.542Z,99.90
2023-02-13T00:58:39.711Z,99.90
2023-02-13T01:01:07.512Z,99.90
2023-02-13T01:03:36.248Z,99.90
2023-02-13T01:06:04.309Z,99.90
2023-02-13T01:08:32.818Z,99.90
2023-02-13T01:11:01.033Z,99.90
2023-02-13T01:13:31.141Z,99.90
2023-02-13T01:15:59.576Z,99.90
2023-02-13T01:18:28.042Z,99.90
2023-02-13T01:20:59.283Z,99.90
2023-02-13T01:23:31.603Z,99.90
2023-02-13T01:26:00.452Z,99.90
2023-02-13T01:28:28.507Z,99.90
2023-02-13T01:30:58.506Z,99.90
2023-02-13T01:33:28.853Z,99.90
2023-02-13T01:35:57.056Z,99.90
2023-02-13T01:38:24.908Z,99.90
2023-02-13T01:40:54.223Z,99.90
2023-02-13T01:43:23.590Z,99.90
2023-02-13T01:45:57.189Z,99.90
2023-02-13T01:48:27.357Z,99.90
2023-02-13T01:51:03.099Z,99.90
2023-02-13T01:53:53.650Z,99.90
2023-02-13T01:56:29.984Z,99.90
2023-02-13T01:59:02.674Z,99.90
2023-02-13T02:01:31.846Z,99.90
2023-02-13T02:04:07.786Z,99.90
2023-02-13T02:06:44.398Z,99.90
2023-02-13T02:09:19.476Z,99.90
2023-02-13T02:12:14.950Z,99.90
2023-02-13T02:14:43.753Z,99.90
2023-02-13T02:17:12.823Z,99.90
2023-02-13T02:19:47.966Z,99.90
2023-02-13T02:22:34.774Z,99.90
2023-02-13T02:25:24.278Z,99.90
2023-02-13T02:28:25.187Z,99.90
2023-02-13T02:31:14.166Z,99.90
2023-02-13T02:34:19.197Z,99.90
2023-02-13T02:37:03.988Z,99.90
2023-02-13T02:40:15.642Z,99.90
2023-02-13T02:43:21.277Z,99.90
2023-02-13T02:46:04.766Z,99.90
2023-02-13T02:49:07.637Z,99.90
2023-02-13T02:52:05.760Z,99.90
2023-02-13T02:55:09.152Z,99.90
2023-02-13T02:58:39.726Z,99.90
2023-02-13T03:01:32.456Z,99.90
2023-02-13T03:04:21.753Z,99.90
2023-02-13T03:06:54.850Z,99.90
2023-02-13T03:09:47.733Z,99.90
2023-02-13T03:12:40.765Z,99.90
2023-02-13T03:15:09.886Z,99.90
2023-02-13T03:17:56.698Z,99.90
2023-02-13T03:20:58.809Z,99.90
2023-02-13T03:23:52.174Z,99.90
2023-02-13T03:26:46.216Z,99.90
2023-02-13T03:30:07.953Z,99.90
2023-02-13T03:32:45.053Z,99.90
2023-02-13T03:35:38.316Z,99.90
2023-02-13T03:38:16.887Z,99.90
2023-02-13T03:41:16.473Z,99.90
2023-02-13T03:43:53.437Z,99.90
2023-02-13T03:46:23.707Z,99.90
2023-02-13T03:49:10.773Z,99.90
2023-02-13T03:51:53.170Z,99.90
2023-02-13T03:54:49.540Z,99.90
2023-02-13T03:57:39.970Z,99.90
2023-02-13T04:00:12.359Z,99.90
2023-02-13T04:03:15.486Z,99.90
2023-02-13T04:05:48.537Z,99.90
2023-02-13T04:08:16.571Z,99.90
2023-02-13T04:10:54.462Z,99.90
2023-02-13T04:13:51.300Z,99.90
2023-02-13T04:16:27.536Z,99.90
2023-02-13T04:18:57.061Z,99.90
2023-02-13T04:21:25.324Z,99.90
2023-02-13T04:23:53.294Z,99.90
2023-02-13T04:26:23.607Z,99.90
2023-02-13T04:28:51.328Z,99.90
2023-02-13T04:31:19.562Z,99.90
2023-02-13T04:33:47.383Z,99.90
2023-02-13T04:36:17.661Z,99.90
2023-02-13T04:38:46.004Z,99.90
2023-02-13T04:41:14.235Z,99.90
2023-02-13T04:43:42.304Z,99.90
2023-02-13T04:46:10.398Z,99.90
2023-02-13T04:48:38.957Z,99.90
2023-02-13T04:51:07.062Z,99.90
2023-02-13T04:53:34.823Z,99.90
2023-02-13T04:56:02.894Z,99.90
2023-02-13T04:58:30.761Z,99.90
2023-02-13T05:00:59.167Z,99.90
2023-02-13T05:03:27.136Z,99.90
2023-02-13T05:05:55.225Z,99.90
2023-02-13T05:08:23.026Z,99.90
2023-02-13T05:10:51.023Z,99.90
2023-02-13T05:13:21.697Z,99.90
2023-02-13T05:15:49.785Z,99.90
2023-02-13T05:18:17.580Z,99.90
2023-02-13T05:20:45.633Z,99.90
2023-02-13T05:23:23.883Z,99.90
2023-02-13T05:25:52.209Z,99.90
2023-02-13T05:28:38.652Z,99.90
2023-02-13T05:31:06.733Z,99.90
2023-02-13T05:33:34.590Z,99.90
2023-02-13T05:36:02.584Z,99.90
2023-02-13T05:38:30.431Z,99.90
2023-02-13T05:41:01.915Z,99.90
2023-02-13T05:43:30.500Z,99.90
2023-02-13T05:46:09.820Z,99.90
2023-02-13T05:48:37.639Z,99.90
2023-02-13T05:51:05.893Z,99.90
2023-02-13T05:53:36.251Z,99.90
2023-02-13T05:56:06.050Z,99.90
2023-02-13T05:58:34.680Z,99.90
2023-02-13T06:01:03.225Z,99.90
2023-02-13T06:03:32.436Z,99.90
2023-02-13T06:06:00.938Z,99.90
2023-02-13T06:08:29.112Z,99.90
2023-02-13T06:10:57.419Z,99.90
2023-02-13T06:13:25.347Z,99.90
2023-02-13T06:15:53.689Z,99.90
2023-02-13T06:18:21.571Z,99.90
2023-02-13T06:20:49.826Z,99.90
2023-02-13T06:23:17.765Z,99.90
2023-02-13T06:25:45.844Z,99.90
2023-02-13T06:28:13.787Z,99.90
2023-02-13T06:30:41.933Z,99.90
2023-02-13T06:33:09.710Z,99.90
2023-02-13T06:35:37.688Z,99.90
2023-02-13T06:38:05.433Z,99.90
2023-02-13T06:40:33.398Z,99.90
2023-02-13T06:43:03.643Z,99.90
2023-02-13T06:45:31.935Z,99.90
2023-02-13T06:47:59.689Z,99.90
2023-02-13T06:50:27.706Z,99.90
2023-02-13T06:52:57.992Z,99.90
2023-02-13T06:55:26.050Z,99.90
2023-02-13T06:57:54.284Z,99.90
2023-02-13T07:00:22.594Z,99.90
2023-02-13T07:02:50.519Z,99.90
2023-02-13T07:05:18.761Z,99.90
2023-02-13T07:07:46.760Z,99.90
2023-02-13T07:10:15.149Z,99.90
2023-02-13T07:12:43.701Z,99.90
2023-02-13T07:15:12.550Z,99.90
2023-02-13T07:17:40.325Z,99.90
2023-02-13T07:20:08.916Z,99.90
2023-02-13T07:22:36.598Z,99.90
2023-02-13T07:25:04.945Z,99.90
2023-02-13T07:27:32.721Z,99.90
2023-02-13T07:30:01.121Z,99.90
2023-02-13T07:32:28.833Z,99.90
2023-02-13T07:35:02.149Z,99.90
2023-02-13T07:37:33.406Z,99.90
2023-02-13T07:40:01.582Z,99.90
2023-02-13T07:42:32.046Z,99.90
2023-02-13T07:45:00.311Z,99.90
2023-02-13T07:47:27.984Z,99.90
2023-02-13T07:49:55.963Z,99.90
2023-02-13T07:52:23.699Z,99.90
2023-02-13T07:54:51.778Z,99.90
2023-02-13T07:57:19.485Z,99.90
2023-02-13T07:59:49.725Z,99.90
2023-02-13T08:02:17.486Z,99.90
2023-02-13T08:04:46.614Z,99.90
2023-02-13T08:07:16.360Z,99.90
2023-02-13T08:10:04.480Z,99.90
2023-02-13T08:12:37.208Z,99.90
2023-02-13T08:15:05.751Z,99.90
2023-02-13T08:17:33.420Z,99.90
2023-02-13T08:20:03.930Z,99.90
2023-02-13T08:22:31.915Z,99.90
2023-02-13T08:24:59.996Z,99.90
2023-02-13T08:27:30.242Z,99.90
2023-02-13T08:29:58.802Z,99.90
2023-02-13T08:32:26.913Z,99.90
2023-02-13T08:34:54.966Z,99.90
2023-02-13T08:37:22.946Z,99.90
2023-02-13T08:39:51.086Z,99.90
2023-02-13T08:42:19.042Z,99.90
2023-02-13T08:44:47.318Z,99.90
2023-02-13T08:47:15.072Z,99.90
2023-02-13T08:49:43.191Z,99.90
2023-02-13T08:52:10.987Z,99.90
2023-02-13T08:54:39.054Z,99.90
2023-02-13T08:57:06.995Z,99.90
2023-02-13T08:59:34.965Z,99.90
2023-02-13T09:02:02.758Z,99.90
2023-02-13T09:04:31.092Z,99.90
2023-02-13T09:06:58.913Z,99.90
2023-02-13T09:09:26.946Z,99.90
2023-02-13T09:11:57.849Z,99.90
2023-02-13T09:14:25.984Z,99.90
2023-02-13T09:16:53.748Z,99.90
2023-02-13T09:19:21.878Z,99.90
2023-02-13T09:21:49.677Z,99.90
2023-02-13T09:24:17.738Z,99.90
2023-02-13T09:26:45.531Z,99.90
2023-02-13T09:29:13.656Z,99.90
2023-02-13T09:31:41.467Z,99.90
2023-02-13T09:34:09.781Z,99.90
2023-02-13T09:36:37.582Z,99.90
2023-02-13T09:39:05.778Z,99.90
2023-02-13T09:41:39.932Z,99.90
2023-02-13T09:44:33.838Z,99.90
2023-02-13T09:47:14.439Z,99.90
2023-02-13T09:49:48.147Z,99.90
2023-02-13T09:52:18.687Z,99.90
2023-02-13T09:54:46.828Z,99.90
2023-02-13T09:57:33.841Z,99.90
2023-02-13T10:00:22.181Z,99.90
2023-02-13T10:02:58.332Z,99.90
2023-02-13T10:05:32.392Z,99.90
2023-02-13T10:08:21.451Z,99.90
2023-02-13T10:10:58.749Z,99.90
2023-02-13T10:13:48.147Z,99.90
2023-02-13T10:16:23.489Z,99.90
2023-02-13T10:19:14.268Z,99.90
2023-02-13T10:21:52.869Z,99.90
2023-02-13T10:24:40.329Z,99.90
2023-02-13T10:27:21.817Z,99.90
2023-02-13T10:30:09.509Z,99.90
2023-02-13T10:32:45.165Z,99.90
2023-02-13T10:35:26.471Z,99.90
2023-02-13T10:37:58.147Z,99.90
2023-02-13T10:40:38.177Z,99.90
2023-02-13T10:43:11.797Z,99.90
2023-02-13T10:45:39.639Z,99.90
2023-02-13T10:48:19.717Z,99.90
2023-02-13T10:51:10.025Z,99.90
2023-02-13T10:53:55.648Z,99.90
2023-02-13T10:56:33.588Z,99.90
2023-02-13T10:59:58.573Z,99.90
2023-02-13T11:02:30.153Z,99.90
2023-02-13T11:05:17.983Z,99.90
2023-02-13T11:07:49.663Z,99.90
2023-02-13T11:10:18.931Z,99.90
2023-02-13T11:12:47.951Z,99.90
2023-02-13T11:15:21.688Z,99.90
2023-02-13T11:17:51.689Z,99.90
2023-02-13T11:20:34.594Z,99.90
2023-02-13T11:23:20.777Z,99.90
2023-02-13T11:26:05.228Z,99.90
2023-02-13T11:28:45.575Z,99.90
2023-02-13T11:31:24.708Z,99.90
2023-02-13T11:33:53.385Z,99.90
2023-02-13T11:36:33.533Z,99.90
2023-02-13T11:39:20.851Z,99.90
2023-02-13T11:41:52.464Z,99.90
2023-02-13T11:44:28.018Z,99.90
2023-02-13T11:46:58.644Z,99.90
2023-02-13T11:49:29.137Z,99.90
2023-02-13T11:52:02.385Z,99.90
2023-02-13T11:54:39.094Z,99.90
2023-02-13T11:57:16.287Z,99.90
2023-02-13T12:00:28.587Z,99.90
2023-02-13T12:02:56.853Z,99.90
2023-02-13T12:05:27.569Z,99.90
2023-02-13T12:08:02.028Z,99.90
2023-02-13T12:10:33.463Z,99.90
2023-02-13T12:13:15.436Z,99.90
2023-02-13T12:15:44.523Z,99.90
2023-02-13T12:18:33.144Z,99.90
2023-02-13T12:21:01.707Z,99.90
2023-02-13T12:23:48.000Z,99.90
2023-02-13T12:26:37.148Z,99.90
2023-02-13T12:29:10.782Z,99.90
2023-02-13T12:32:02.924Z,99.90
2023-02-13T12:39:32.209Z,99.90
2023-02-13T12:42:09.395Z,99.90
2023-02-13T12:45:31.517Z,99.90
2023-02-13T12:53:35.632Z,99.90
2023-02-13T13:00:24.386Z,99.90
2023-02-13T13:03:07.323Z,99.90
2023-02-13T13:11:15.993Z,99.30
2023-02-13T13:13:56.669Z,99.40
2023-02-13T13:17:33.799Z,98.30
2023-02-13T13:21:01.991Z,97.90
2023-02-13T13:24:00.427Z,97.80
2023-02-13T13:26:42.374Z,98.70
2023-02-13T13:29:53.035Z,98.90
2023-02-13T13:33:26.650Z,98.80
2023-02-13T13:36:23.401Z,98.10
2023-02-13T13:39:27.874Z,97.10
2023-02-13T13:47:33.803Z,96.50
2023-02-13T13:51:25.986Z,96.40
2023-02-13T13:59:39.642Z,96.10
2023-02-13T14:03:40.682Z,95.50
2023-02-13T14:07:00.979Z,95.50
2023-02-13T14:09:41.717Z,94.60
2023-02-13T14:12:24.678Z,94.40
2023-02-13T14:14:54.253Z,95.00
2023-02-13T14:17:46.635Z,96.00
2023-02-13T14:20:50.763Z,96.40
2023-02-13T14:23:42.456Z,96.30
2023-02-13T14:26:13.257Z,96.00
2023-02-13T14:28:42.339Z,95.60
2023-02-13T14:31:24.756Z,95.10
2023-02-13T14:34:05.333Z,94.50
2023-02-13T14:36:36.452Z,94.50
2023-02-13T14:39:16.414Z,94.90
2023-02-13T14:41:56.901Z,95.10
2023-02-13T14:44:35.988Z,94.90
2023-02-13T14:47:22.151Z,94.70
2023-02-13T14:49:51.503Z,94.10
2023-02-13T14:52:26.554Z,94.00
2023-02-13T14:54:58.731Z,93.80
2023-02-13T14:57:34.538Z,92.60
2023-02-13T15:00:16.432Z,92.80
2023-02-13T15:02:53.285Z,93.90
2023-02-13T15:05:22.895Z,94.20
2023-02-13T15:08:00.856Z,94.60
2023-02-13T15:10:50.146Z,94.90
2023-02-13T15:13:22.520Z,95.00
2023-02-13T15:16:10.074Z,95.10
2023-02-13T15:18:55.424Z,95.20
2023-02-13T15:21:33.222Z,95.40
2023-02-13T15:24:01.507Z,95.50
2023-02-13T15:26:29.630Z,95.80
2023-02-13T15:29:04.577Z,96.30
2023-02-13T15:31:34.821Z,96.30
2023-02-13T15:34:02.963Z,96.30
2023-02-13T15:36:41.544Z,96.50
2023-02-13T15:39:18.836Z,96.70
2023-02-13T15:41:52.152Z,97.30
2023-02-13T15:44:24.589Z,97.10
2023-02-13T15:46:58.896Z,97.40
2023-02-13T15:49:27.766Z,97.80
2023-02-13T15:52:06.114Z,98.40
2023-02-13T15:54:35.576Z,98.90
2023-02-13T15:57:07.302Z,99.50
2023-02-13T15:59:38.023Z,99.90
2023-02-13T16:02:12.595Z,99.90
2023-02-13T16:04:41.621Z,99.90
2023-02-13T16:07:12.997Z,99.90
2023-02-13T16:09:41.650Z,99.90
2023-02-13T16:12:19.329Z,99.90
2023-02-13T16:14:57.829Z,99.90
2023-02-13T16:17:34.684Z,99.90
2023-02-13T16:20:17.043Z,99.90
2023-02-13T16:22:48.997Z,99.90
2023-02-13T16:25:34.678Z,99.90
2023-02-13T16:28:10.199Z,99.90
2023-02-13T16:30:43.936Z,99.90
2023-02-13T16:33:14.654Z,99.90
2023-02-13T16:35:50.350Z,99.90
2023-02-13T16:38:37.016Z,99.90
2023-02-13T16:41:26.643Z,99.90
2023-02-13T16:44:02.690Z,99.90
2023-02-13T16:46:35.335Z,99.90
2023-02-13T16:49:06.842Z,99.90
2023-02-13T16:51:38.465Z,99.90
2023-02-13T16:54:18.703Z,99.90
2023-02-13T16:56:57.459Z,99.90
2023-02-13T16:59:43.304Z,99.90
2023-02-13T17:02:34.666Z,99.90
2023-02-13T17:05:08.553Z,99.90
2023-02-13T17:07:46.870Z,99.90
2023-02-13T17:10:27.572Z,99.90
2023-02-13T17:13:01.489Z,99.90
2023-02-13T17:15:31.249Z,99.90
2023-02-13T17:18:00.069Z,99.90
2023-02-13T17:20:33.640Z,99.90
2023-02-13T17:23:06.596Z,99.90
2023-02-13T17:25:37.935Z,99.90
2023-02-13T17:28:24.305Z,99.90
2023-02-13T17:30:56.428Z,99.90
2023-02-13T17:33:27.259Z,99.90
2023-02-13T17:35:58.702Z,99.90
2023-02-13T17:38:26.832Z,99.90
2023-02-13T17:40:54.653Z,99.90
2023-02-13T17:43:23.019Z,99.90
2023-02-13T17:45:51.125Z,99.90
2023-02-13T17:48:19.544Z,99.90
2023-02-13T17:50:49.243Z,99.90
2023-02-13T17:53:32.022Z,99.90
2023-02-13T17:55:59.922Z,99.90
2023-02-13T17:58:28.208Z,99.90
2023-02-13T18:00:56.483Z,99.90
2023-02-13T18:03:24.662Z,99.90
2023-02-13T18:05:54.833Z,99.90
2023-02-13T18:08:23.057Z,99.90
2023-02-13T18:10:50.921Z,99.90
2023-02-13T18:13:21.204Z,99.90
2023-02-13T18:15:49.221Z,99.90
2023-02-13T18:18:17.716Z,99.90
2023-02-13T18:20:45.638Z,99.90
2023-02-13T18:23:14.175Z,99.90
2023-02-13T18:25:42.008Z,99.90
2023-02-13T18:28:10.293Z,99.90
2023-02-13T18:30:42.360Z,99.90
2023-02-13T18:33:10.533Z,99.90
2023-02-13T18:35:38.305Z,99.90
2023-02-13T18:38:06.338Z,99.90
2023-02-13T18:40:34.262Z,99.90
2023-02-13T18:43:02.586Z,99.90
2023-02-13T18:45:30.863Z,99.90
2023-02-13T18:47:59.434Z,99.90
2023-02-13T18:50:27.170Z,99.90
2023-02-13T18:52:55.321Z,99.90
2023-02-13T18:55:23.048Z,99.90
2023-02-13T18:57:53.942Z,99.90
2023-02-13T19:00:23.493Z,99.90
2023-02-13T19:02:54.590Z,99.90
2023-02-13T19:05:22.812Z,99.90
2023-02-13T19:07:50.915Z,99.90
2023-02-13T19:10:18.972Z,99.90
2023-02-13T19:12:47.790Z,99.90
2023-02-13T19:15:16.615Z,99.90
2023-02-13T19:17:47.185Z,99.90
2023-02-13T19:20:16.769Z,99.90
2023-02-13T19:22:45.100Z,99.90
2023-02-13T19:25:15.324Z,99.90
2023-02-13T19:27:43.388Z,99.90
2023-02-13T19:30:12.587Z,99.90
2023-02-13T19:32:41.469Z,99.90
2023-02-13T19:35:09.355Z,99.90
2023-02-13T19:37:43.853Z,99.90
2023-02-13T19:40:13.582Z,99.90
2023-02-13T19:42:41.632Z,99.90
2023-02-13T19:45:10.115Z,99.90
2023-02-13T19:47:38.295Z,99.90
2023-02-13T19:50:06.903Z,99.90
2023-02-13T19:52:34.916Z,99.90
2023-02-13T19:55:02.953Z,99.90
2023-02-13T19:57:33.327Z,99.90
2023-02-13T20:00:02.433Z,99.90
2023-02-13T20:02:42.218Z,99.90
2023-02-13T20:05:10.140Z,99.90
2023-02-13T20:07:39.312Z,99.90
2023-02-13T20:10:10.390Z,99.90
2023-02-13T20:12:39.216Z,99.90
2023-02-13T20:15:07.470Z,99.90
2023-02-13T20:17:38.936Z,99.90
2023-02-13T20:20:09.518Z,99.90
2023-02-13T20:22:37.565Z,99.90
2023-02-13T20:25:05.973Z,99.90
2023-02-13T20:30:07.833Z,99.90
2023-02-13T20:32:36.362Z,99.90
2023-02-13T20:35:05.341Z,99.90
2023-02-13T20:37:33.770Z,99.90
2023-02-13T20:40:01.720Z,99.90
2023-02-13T20:42:33.318Z,99.90
2023-02-13T20:45:01.621Z,99.90
2023-02-13T20:47:29.785Z,99.90
2023-02-13T20:49:57.622Z,99.90
2023-02-13T20:52:25.627Z,99.90
2023-02-13T20:54:55.692Z,99.90
2023-02-13T20:57:23.824Z,99.90
2023-02-13T20:59:51.499Z,99.90
2023-02-13T21:02:20.951Z,99.90
2023-02-13T21:04:51.107Z,99.90
2023-02-13T21:07:19.300Z,99.90
2023-02-13T21:09:47.546Z,99.90
2023-02-13T21:12:15.605Z,99.90
2023-02-13T21:14:43.704Z,99.90
2023-02-13T21:17:11.695Z,99.90
2023-02-13T21:19:41.329Z,99.90
2023-02-13T21:22:12.427Z,99.90
2023-02-13T21:24:41.856Z,99.90
2023-02-13T21:27:10.949Z,99.90
2023-02-13T21:29:38.985Z,99.90
2023-02-13T21:32:06.997Z,99.90
2023-02-13T21:34:34.896Z,99.90
2023-02-13T21:37:03.053Z,99.90
2023-02-13T21:39:36.378Z,99.90
2023-02-13T21:42:04.621Z,99.90
2023-02-13T21:44:32.420Z,99.90
2023-02-13T21:47:00.478Z,99.90
2023-02-13T21:49:28.561Z,99.90
2023-02-13T21:51:56.690Z,99.90
2023-02-13T21:54:24.517Z,99.90
2023-02-13T21:56:52.566Z,99.90
2023-02-13T21:59:20.532Z,99.90
2023-02-13T22:01:52.773Z,99.90
2023-02-13T22:04:23.733Z,99.90
2023-02-13T22:06:55.252Z,99.90
2023-02-13T22:09:23.158Z,99.90
2023-02-13T22:11:53.870Z,99.90
2023-02-13T22:14:22.463Z,99.90
2023-02-13T22:16:51.928Z,99.90
2023-02-13T22:19:21.991Z,99.90
2023-02-13T22:21:50.086Z,99.90
2023-02-13T22:24:17.941Z,99.90
2023-02-13T22:26:45.977Z,99.90
2023-02-13T22:29:16.023Z,99.90
2023-02-13T22:31:44.546Z,99.90
2023-02-13T22:34:13.483Z,99.90
2023-02-13T22:36:42.845Z,99.90
2023-02-13T22:39:11.576Z,99.90
2023-02-13T22:41:45.574Z,99.90
2023-02-13T22:44:13.695Z,99.90
2023-02-13T22:46:41.865Z,99.90
2023-02-13T22:49:09.973Z,99.90
2023-02-13T22:51:37.999Z,99.90
2023-02-13T22:54:06.120Z,99.90
2023-02-13T22:56:34.726Z,99.90
2023-02-13T22:59:05.218Z,99.90
2023-02-13T23:01:33.337Z,99.90
2023-02-13T23:04:01.188Z,99.90
2023-02-13T23:06:29.544Z,99.90
2023-02-13T23:08:59.807Z,99.90
2023-02-13T23:11:47.413Z,99.90
2023-02-13T23:14:15.818Z,99.90
2023-02-13T23:17:02.728Z,99.90
2023-02-13T23:19:30.971Z,99.90
2023-02-13T23:21:59.849Z,99.90
2023-02-13T23:24:28.995Z,99.90
2023-02-13T23:26:58.681Z,99.90
2023-02-13T23:29:26.719Z,99.90
2023-02-13T23:31:54.924Z,99.90
2023-02-13T23:34:22.835Z,99.90
2023-02-13T23:36:50.927Z,99.90
2023-02-13T23:39:19.979Z,99.90
2023-02-13T23:41:48.011Z,99.90
2023-02-13T23:44:15.747Z,99.90
2023-02-13T23:46:43.871Z,99.90
2023-02-13T23:49:11.868Z,99.90
2023-02-13T23:51:39.923Z,99.90
2023-02-13T23:54:08.021Z,99.90
2023-02-13T23:56:36.003Z,99.90
2023-02-13T23:59:03.776Z,99.90
